Time;durP1;ratioP1;P1;durP2;ratioP2;P2;SDS_P1;SDS_P2;PMS_P1;PMS_P2;Temp;Humidity;BMP_temperature;BMP_pressure;BME280_temperature;BME280_humidity;BME280_pressure;Samples;Min_cycle;Max_cycle;Signal;HPM_P1;HPM_P2
2021/10/09 00:00:54;;;;;;;19.45;16.95;;;8.40;99.90;;;;;;5002864;28;20199;-78
2021/10/09 00:03:21;;;;;;;21.77;16.65;;;8.40;99.90;;;;;;5003280;28;20204;-79
2021/10/09 00:05:48;;;;;;;26.55;19.13;;;8.40;99.90;;;;;;5002877;28;20228;-79
2021/10/09 00:08:17;;;;;;;21.92;17.08;;;8.40;99.90;;;;;;5002975;28;20212;-80
2021/10/09 00:10:45;;;;;;;24.52;19.10;;;8.40;99.90;;;;;;5003808;28;20203;-79
2021/10/09 00:13:12;;;;;;;21.23;18.02;;;8.30;99.90;;;;;;5003829;28;20207;-80
2021/10/09 00:15:39;;;;;;;20.58;16.90;;;8.40;99.90;;;;;;5003298;28;20236;-80
2021/10/09 00:18:06;;;;;;;23.98;18.85;;;8.50;99.90;;;;;;5003091;28;20203;-78
2021/10/09 00:20:33;;;;;;;19.42;16.90;;;8.50;99.90;;;;;;5003741;28;20227;-80
2021/10/09 00:23:00;;;;;;;28.95;19.23;;;8.60;99.90;;;;;;5002859;28;20204;-80
2021/10/09 00:25:28;;;;;;;22.77;18.17;;;8.50;99.90;;;;;;5002243;28;20728;-78
2021/10/09 00:27:55;;;;;;;24.58;18.63;;;8.50;99.90;;;;;;5002080;28;20583;-80
2021/10/09 00:30:22;;;;;;;28.65;19.70;;;8.50;99.90;;;;;;5001961;28;20824;-79
2021/10/09 00:32:48;;;;;;;25.30;19.52;;;8.50;99.90;;;;;;5002241;28;20208;-78
2021/10/09 00:35:15;;;;;;;25.60;18.17;;;8.50;99.90;;;;;;5001889;28;20227;-79
2021/10/09 00:37:42;;;;;;;25.13;21.00;;;8.40;99.90;;;;;;5001911;28;20207;-80
2021/10/09 00:40:09;;;;;;;26.08;19.90;;;8.40;99.90;;;;;;5002065;28;20227;-79
2021/10/09 00:42:37;;;;;;;28.40;22.00;;;8.40;99.90;;;;;;5001733;28;20215;-79
2021/10/09 00:45:06;;;;;;;28.95;21.85;;;8.30;99.90;;;;;;5001626;28;20231;-80
2021/10/09 00:47:33;;;;;;;25.52;20.92;;;8.30;99.90;;;;;;5001531;28;20586;-78
2021/10/09 00:50:00;;;;;;;27.92;22.08;;;8.30;99.90;;;;;;5001785;28;20580;-79
2021/10/09 00:52:27;;;;;;;27.42;23.65;;;8.30;99.90;;;;;;5001776;28;20568;-79
2021/10/09 00:54:56;;;;;;;28.95;21.85;;;8.20;99.90;;;;;;5001596;28;20227;-80
2021/10/09 00:57:24;;;;;;;32.72;23.27;;;8.20;99.90;;;;;;5003850;28;20254;-79
2021/10/09 00:59:52;;;;;;;31.30;22.40;;;8.20;99.90;;;;;;5004773;28;20224;-79
2021/10/09 01:02:20;;;;;;;29.42;24.25;;;8.20;99.90;;;;;;5005246;28;20571;-79
2021/10/09 01:04:49;;;;;;;30.88;24.80;;;8.20;99.90;;;;;;5005223;28;20616;-79
2021/10/09 01:07:15;;;;;;;30.90;24.90;;;8.10;99.90;;;;;;5004468;28;20211;-80
2021/10/09 01:09:43;;;;;;;34.97;25.35;;;8.00;99.90;;;;;;5005618;28;20207;-79
2021/10/09 01:12:10;;;;;;;30.88;23.90;;;8.00;99.90;;;;;;5004814;28;20274;-78
2021/10/09 01:14:37;;;;;;;36.28;25.60;;;7.90;99.90;;;;;;5005022;28;20223;-78
2021/10/09 01:17:05;;;;;;;30.67;23.15;;;7.80;99.90;;;;;;5004014;28;20211;-79
2021/10/09 01:19:32;;;;;;;34.47;26.58;;;7.70;99.90;;;;;;5004907;28;20227;-78
2021/10/09 01:22:00;;;;;;;30.73;22.92;;;7.70;99.90;;;;;;5005470;28;20788;-79
2021/10/09 01:24:27;;;;;;;32.10;24.33;;;7.80;99.90;;;;;;5004540;28;20859;-80
2021/10/09 01:26:54;;;;;;;28.48;24.55;;;7.80;99.90;;;;;;5005163;28;20682;-79
2021/10/09 01:29:20;;;;;;;27.85;23.10;;;7.80;99.90;;;;;;5005116;28;20202;-80
2021/10/09 01:31:47;;;;;;;26.42;22.65;;;7.80;99.90;;;;;;5005451;28;20215;-80
2021/10/09 01:34:19;;;;;;;30.60;22.42;;;7.80;99.90;;;;;;5004959;28;20705;-80
2021/10/09 01:36:46;;;;;;;30.75;22.67;;;7.80;99.90;;;;;;5005299;28;20207;-79
2021/10/09 01:39:15;;;;;;;28.73;23.80;;;7.80;99.90;;;;;;5004311;28;20231;-80
2021/10/09 01:41:45;;;;;;;29.27;21.55;;;7.70;99.90;;;;;;5005982;28;20298;-80
2021/10/09 01:44:13;;;;;;;26.63;20.08;;;7.70;99.90;;;;;;5004420;28;20227;-79
2021/10/09 01:46:40;;;;;;;28.67;21.20;;;7.70;99.90;;;;;;5004298;28;20219;-77
2021/10/09 01:49:08;;;;;;;23.55;20.35;;;7.70;99.90;;;;;;5006064;28;20203;-77
2021/10/09 01:51:35;;;;;;;29.30;21.50;;;7.70;99.90;;;;;;5007208;28;20210;-77
2021/10/09 01:54:03;;;;;;;21.95;18.23;;;7.70;99.90;;;;;;5007514;28;20228;-77
2021/10/09 01:56:31;;;;;;;22.88;19.42;;;7.70;99.90;;;;;;5005271;28;20210;-81
2021/10/09 01:58:58;;;;;;;25.47;19.00;;;7.70;99.90;;;;;;5004312;28;20215;-79
2021/10/09 02:01:24;;;;;;;23.08;20.45;;;7.70;99.90;;;;;;5002833;28;20583;-79
2021/10/09 02:03:51;;;;;;;23.50;18.88;;;7.80;99.90;;;;;;4999406;28;20223;-80
2021/10/09 02:06:18;;;;;;;24.08;18.77;;;7.90;99.90;;;;;;4998787;28;20204;-80
2021/10/09 02:08:44;;;;;;;26.77;18.77;;;7.90;99.90;;;;;;4998391;28;20230;-80
2021/10/09 02:11:14;;;;;;;23.38;18.70;;;7.80;99.90;;;;;;4998626;28;20204;-80
2021/10/09 02:13:46;;;;;;;22.90;20.10;;;7.80;99.90;;;;;;4998859;28;20200;-80
2021/10/09 02:16:23;;;;;;;18.67;16.77;;;7.80;99.90;;;;;;4998654;28;20203;-80
2021/10/09 02:19:07;;;;;;;21.92;18.88;;;7.90;99.90;;;;;;4998994;28;20723;-80
2021/10/09 02:24:28;;;;;;;18.10;15.95;;;7.90;99.90;;;;;;4999093;28;20298;-80
2021/10/09 02:26:55;;;;;;;21.35;16.67;;;7.90;99.90;;;;;;4998873;28;20245;-80
2021/10/09 02:29:23;;;;;;;19.95;16.38;;;7.90;99.90;;;;;;4998659;28;20207;-80
2021/10/09 02:31:55;;;;;;;19.85;16.25;;;7.90;99.90;;;;;;4998535;28;20211;-80
2021/10/09 02:34:21;;;;;;;19.02;17.23;;;7.90;99.90;;;;;;4998510;28;20231;-80
2021/10/09 02:36:48;;;;;;;19.90;15.50;;;7.90;99.90;;;;;;4997503;28;20218;-80
2021/10/09 02:39:15;;;;;;;20.60;16.45;;;7.80;99.90;;;;;;4998099;28;20207;-80
2021/10/09 02:41:42;;;;;;;18.77;15.52;;;7.90;99.90;;;;;;4998668;28;20212;-80
2021/10/09 02:44:08;;;;;;;19.80;15.25;;;7.90;99.90;;;;;;4997873;28;20215;-80
2021/10/09 02:46:37;;;;;;;18.90;16.27;;;7.90;99.90;;;;;;4997959;28;20288;-80
2021/10/09 02:49:03;;;;;;;17.40;15.23;;;7.90;99.90;;;;;;4998353;28;20211;-79
2021/10/09 02:51:30;;;;;;;17.30;14.63;;;7.90;99.90;;;;;;4998246;28;20210;-80
2021/10/09 02:53:57;;;;;;;18.63;15.88;;;7.90;99.90;;;;;;4997614;28;20224;-80
2021/10/09 02:56:24;;;;;;;20.88;15.40;;;7.90;99.90;;;;;;4997692;28;20208;-80
2021/10/09 02:58:50;;;;;;;16.77;14.45;;;8.00;99.90;;;;;;4998606;28;20212;-80
2021/10/09 03:01:17;;;;;;;20.33;15.75;;;8.10;99.90;;;;;;4998438;28;20232;-81
2021/10/09 03:03:45;;;;;;;19.70;15.77;;;8.10;99.90;;;;;;4997884;28;20211;-80
2021/10/09 03:06:12;;;;;;;18.73;15.95;;;7.90;99.90;;;;;;4997846;28;20215;-81
2021/10/09 03:08:38;;;;;;;16.73;15.02;;;7.90;99.90;;;;;;4998276;28;20215;-81
2021/10/09 03:11:05;;;;;;;18.95;15.70;;;8.00;99.90;;;;;;4998276;28;20211;-81
2021/10/09 03:13:32;;;;;;;15.93;14.20;;;7.90;99.90;;;;;;4997874;28;20576;-79
2021/10/09 03:15:59;;;;;;;17.73;14.63;;;8.00;99.90;;;;;;4997654;28;20666;-81
2021/10/09 03:18:25;;;;;;;16.13;14.43;;;8.00;99.90;;;;;;4997801;28;20225;-80
2021/10/09 03:20:53;;;;;;;17.98;15.77;;;8.00;99.90;;;;;;4997309;28;20227;-80
2021/10/09 03:23:20;;;;;;;22.42;15.20;;;8.00;99.90;;;;;;4997421;28;20785;-81
2021/10/09 03:25:47;;;;;;;17.70;15.85;;;8.00;99.90;;;;;;4997442;28;20219;-81
2021/10/09 03:28:14;;;;;;;17.42;14.07;;;8.00;99.90;;;;;;4997646;28;20212;-81
2021/10/09 03:30:40;;;;;;;17.15;14.75;;;8.00;99.90;;;;;;4997560;28;20204;-80
2021/10/09 03:33:07;;;;;;;17.73;13.27;;;8.00;99.90;;;;;;4997009;28;20233;-80
2021/10/09 03:35:34;;;;;;;15.93;14.25;;;8.10;99.90;;;;;;4996874;28;20227;-81
2021/10/09 03:38:03;;;;;;;16.83;14.05;;;8.10;99.90;;;;;;4997982;28;20216;-79
2021/10/09 03:40:29;;;;;;;13.98;12.50;;;8.10;99.90;;;;;;4998105;28;20251;-81
2021/10/09 03:43:00;;;;;;;18.05;13.50;;;8.00;99.90;;;;;;4998784;28;20710;-81
2021/10/09 03:45:30;;;;;;;14.10;12.27;;;8.10;99.90;;;;;;4998100;28;20740;-81
2021/10/09 03:48:06;;;;;;;14.80;13.20;;;8.10;99.90;;;;;;4998484;28;20234;-81
2021/10/09 03:53:17;;;;;;;14.77;13.20;;;8.20;99.90;;;;;;4986342;28;20287;-81
2021/10/09 03:55:44;;;;;;;16.35;13.68;;;8.30;99.90;;;;;;4997260;28;20232;-81
2021/10/09 03:58:11;;;;;;;22.35;13.00;;;8.20;99.90;;;;;;4997475;28;20204;-81
2021/10/09 04:00:37;;;;;;;15.38;13.02;;;8.20;99.90;;;;;;4997981;28;20239;-81
2021/10/09 04:03:04;;;;;;;16.13;13.90;;;8.10;99.90;;;;;;4996974;28;20206;-81
2021/10/09 04:05:31;;;;;;;15.23;13.77;;;8.10;99.90;;;;;;4997348;28;20227;-81
2021/10/09 04:07:58;;;;;;;14.95;13.35;;;8.10;99.90;;;;;;4997874;28;20206;-81
2021/10/09 04:10:26;;;;;;;14.55;13.15;;;8.10;99.90;;;;;;4996844;28;20207;-81
2021/10/09 04:12:52;;;;;;;15.07;13.52;;;8.10;99.90;;;;;;5016525;23;20590;-83
2021/10/09 04:15:19;;;;;;;16.70;14.98;;;8.10;99.90;;;;;;5013819;28;20208;-83
2021/10/09 04:17:46;;;;;;;17.85;13.45;;;8.00;99.90;;;;;;5013178;28;20207;-82
2021/10/09 04:20:13;;;;;;;16.13;13.82;;;8.00;99.90;;;;;;4994702;28;20224;-83
2021/10/09 04:22:39;;;;;;;15.05;13.20;;;7.90;99.90;;;;;;4986266;28;20232;-82
2021/10/09 04:25:07;;;;;;;18.20;13.10;;;7.90;99.90;;;;;;4974844;28;20632;-83
2021/10/09 04:27:36;;;;;;;18.98;14.77;;;7.80;99.90;;;;;;4975118;28;20213;-83
2021/10/09 04:30:03;;;;;;;17.45;13.55;;;7.80;99.90;;;;;;4992464;28;20207;-82
2021/10/09 04:32:30;;;;;;;17.73;14.40;;;7.80;99.90;;;;;;4996272;28;20231;-83
2021/10/09 04:34:57;;;;;;;19.98;16.08;;;7.70;99.90;;;;;;4980344;28;20240;-83
2021/10/09 04:37:24;;;;;;;15.75;13.25;;;7.60;99.90;;;;;;4981136;28;20210;-82
2021/10/09 04:39:50;;;;;;;15.02;13.43;;;7.70;99.90;;;;;;4997677;28;20212;-82
2021/10/09 04:42:17;;;;;;;17.65;15.88;;;7.70;99.90;;;;;;4995192;28;20236;-83
2021/10/09 04:44:45;;;;;;;22.88;16.45;;;7.70;99.90;;;;;;4977125;28;20282;-82
2021/10/09 04:47:12;;;;;;;15.65;13.68;;;7.70;99.90;;;;;;4978434;28;20300;-82
2021/10/09 04:49:39;;;;;;;20.67;14.38;;;7.70;99.90;;;;;;4997094;28;20211;-83
2021/10/09 04:52:06;;;;;;;22.85;15.80;;;7.60;99.90;;;;;;4996798;28;20227;-82
2021/10/09 04:54:32;;;;;;;18.27;16.00;;;7.50;99.90;;;;;;4978136;28;20208;-82
2021/10/09 04:56:59;;;;;;;18.30;16.33;;;7.50;99.90;;;;;;4984882;28;20231;-83
2021/10/09 04:59:26;;;;;;;19.50;15.20;;;7.60;99.90;;;;;;4998101;28;20210;-82
2021/10/09 05:01:54;;;;;;;15.77;14.27;;;7.50;99.90;;;;;;4992993;28;20228;-82
2021/10/09 05:04:21;;;;;;;15.88;14.20;;;7.30;99.90;;;;;;4977187;28;20677;-82
2021/10/09 05:06:47;;;;;;;19.45;16.05;;;7.40;99.90;;;;;;4982929;28;20200;-82
2021/10/09 05:09:14;;;;;;;20.15;15.70;;;7.40;99.90;;;;;;4996183;28;20215;-82
2021/10/09 05:11:41;;;;;;;18.60;16.25;;;7.40;99.90;;;;;;4991371;28;20208;-82
2021/10/09 05:14:08;;;;;;;22.60;15.90;;;7.50;99.90;;;;;;4977288;28;20212;-82
2021/10/09 05:16:34;;;;;;;18.40;16.50;;;7.50;99.90;;;;;;4980291;28;20207;-82
2021/10/09 05:19:03;;;;;;;19.92;16.80;;;7.40;99.90;;;;;;4996283;28;20234;-82
2021/10/09 05:21:29;;;;;;;19.58;16.40;;;7.50;99.90;;;;;;4994094;28;20293;-82
2021/10/09 05:23:56;;;;;;;20.48;16.10;;;7.60;99.90;;;;;;4976957;28;20232;-82
2021/10/09 05:26:23;;;;;;;20.20;16.63;;;7.60;99.90;;;;;;4996242;28;20337;-83
2021/10/09 05:28:50;;;;;;;19.23;16.35;;;7.60;99.90;;;;;;4996369;28;20212;-82
2021/10/09 05:31:25;;;;;;;22.30;17.77;;;7.60;99.90;;;;;;4977846;28;20208;-83
2021/10/09 05:33:52;;;;;;;21.02;18.80;;;7.50;99.90;;;;;;4976997;28;20322;-83
2021/10/09 05:36:20;;;;;;;20.05;16.50;;;7.50;99.90;;;;;;4978952;28;20212;-83
2021/10/09 05:38:47;;;;;;;23.70;18.80;;;7.60;99.90;;;;;;4977298;28;20575;-82
2021/10/09 05:41:14;;;;;;;27.92;19.48;;;7.50;99.90;;;;;;4994031;28;20219;-82
2021/10/09 05:43:41;;;;;;;19.38;16.33;;;7.50;99.90;;;;;;4994862;28;20746;-83
2021/10/09 05:46:08;;;;;;;21.88;16.27;;;7.50;99.90;;;;;;4980138;28;20204;-82
2021/10/09 05:48:37;;;;;;;19.88;17.85;;;7.60;99.90;;;;;;4982214;28;20734;-83
2021/10/09 05:51:06;;;;;;;20.70;16.75;;;7.70;99.90;;;;;;4996008;28;20735;-82
2021/10/09 05:56:30;;;;;;;28.38;18.80;;;7.60;99.90;;;;;;4974979;28;20203;-82
2021/10/09 05:59:08;;;;;;;18.52;16.17;;;7.60;99.90;;;;;;4995746;28;20677;-82
2021/10/09 06:01:53;;;;;;;17.23;15.52;;;7.60;99.90;;;;;;4993014;28;20235;-82
2021/10/09 06:43:12;;;;;;;25.00;19.65;;;8.20;99.90;;;;;;4958093;28;20228;-81
2021/10/09 06:46:04;;;;;;;21.30;16.75;;;8.30;99.90;;;;;;4976274;28;20215;-83
2021/10/09 06:59:31;;;;;;;22.83;17.92;;;8.80;99.90;;;;;;4976256;28;20208;-82
2021/10/09 07:01:58;;;;;;;18.10;16.20;;;8.80;99.90;;;;;;4993547;28;20777;-82
2021/10/09 07:04:25;;;;;;;24.67;17.70;;;8.90;99.90;;;;;;4996111;28;20238;-82
2021/10/09 07:06:53;;;;;;;22.30;18.65;;;9.00;99.90;;;;;;4980560;28;20215;-82
2021/10/09 07:09:20;;;;;;;18.88;16.10;;;9.10;99.90;;;;;;4977495;28;20222;-82
2021/10/09 07:11:47;;;;;;;20.60;18.50;;;9.30;99.90;;;;;;4991221;28;20653;-82
2021/10/09 07:14:14;;;;;;;18.30;15.93;;;9.30;99.90;;;;;;4998393;28;20219;-82
2021/10/09 07:16:42;;;;;;;16.25;14.52;;;9.50;99.90;;;;;;4984415;28;20231;-83
2021/10/09 07:19:08;;;;;;;18.73;16.77;;;9.50;99.90;;;;;;4977217;28;20219;-83
2021/10/09 07:21:35;;;;;;;26.83;18.45;;;9.50;99.90;;;;;;4977554;28;20590;-83
2021/10/09 07:24:02;;;;;;;17.83;15.50;;;9.60;99.90;;;;;;4976369;28;20225;-81
2021/10/09 07:26:28;;;;;;;23.77;18.52;;;9.70;99.90;;;;;;4995864;28;20200;-82
2021/10/09 07:28:55;;;;;;;17.33;15.50;;;9.80;99.90;;;;;;4997221;28;20216;-83
2021/10/09 07:31:22;;;;;;;19.35;14.82;;;9.90;99.90;;;;;;4977004;28;20202;-83
2021/10/09 07:33:50;;;;;;;21.60;16.33;;;10.00;99.90;;;;;;4976383;28;20230;-82
2021/10/09 07:36:17;;;;;;;21.98;17.80;;;10.10;99.90;;;;;;4995009;28;20209;-83
2021/10/09 07:38:44;;;;;;;17.75;15.40;;;10.10;99.90;;;;;;4995698;28;20211;-83
2021/10/09 07:41:11;;;;;;;19.58;17.55;;;10.20;99.90;;;;;;4979301;28;20230;-82
2021/10/09 07:43:38;;;;;;;20.17;16.58;;;10.30;99.90;;;;;;4975872;28;20230;-82
2021/10/09 07:46:04;;;;;;;23.00;16.63;;;10.40;99.90;;;;;;4991360;28;20224;-82
2021/10/09 07:48:31;;;;;;;20.30;18.20;;;10.40;99.90;;;;;;4996042;28;20681;-82
2021/10/09 07:50:59;;;;;;;20.13;16.70;;;10.50;99.90;;;;;;4982710;28;20208;-83
2021/10/09 07:53:26;;;;;;;17.15;15.45;;;10.60;99.90;;;;;;4978920;28;20231;-83
2021/10/09 07:55:53;;;;;;;24.53;18.10;;;10.70;99.90;;;;;;4995695;28;20213;-83
2021/10/09 07:58:20;;;;;;;18.97;16.77;;;10.70;99.90;;;;;;4993590;28;20459;-83
2021/10/09 08:00:46;;;;;;;28.40;16.83;;;10.70;99.90;;;;;;4978344;28;20504;-83
2021/10/09 08:03:13;;;;;;;19.70;17.60;;;10.80;99.90;;;;;;4978503;28;20477;-84
2021/10/09 08:05:40;;;;;;;20.93;16.50;;;10.90;99.90;;;;;;4996865;28;20208;-85
2021/10/09 08:08:08;;;;;;;23.70;19.03;;;11.00;99.90;;;;;;5001400;28;20468;-83
2021/10/09 08:10:35;;;;;;;20.40;17.60;;;11.10;99.90;;;;;;4981551;28;20458;-84
2021/10/09 08:13:01;;;;;;;22.60;17.43;;;11.20;99.90;;;;;;4980333;28;21002;-83
2021/10/09 08:15:28;;;;;;;21.75;18.00;;;11.30;99.90;;;;;;4998713;28;20464;-84
2021/10/09 08:17:55;;;;;;;22.47;17.10;;;11.40;99.90;;;;;;4999412;28;20220;-84
2021/10/09 08:20:23;;;;;;;22.17;16.23;;;11.50;99.90;;;;;;4983176;28;20459;-84
2021/10/09 08:22:58;;;;;;;20.03;17.73;;;11.60;99.90;;;;;;4985561;28;20516;-83
2021/10/09 08:36:32;;;;;;;21.20;17.60;;;11.80;99.90;;;;;;5000834;28;20413;-83
2021/10/09 08:38:59;;;;;;;20.33;16.87;;;11.80;99.90;;;;;;4993218;28;20517;-83
2021/10/09 08:41:28;;;;;;;21.50;17.00;;;11.80;99.90;;;;;;4981816;28;20497;-83
2021/10/09 08:43:55;;;;;;;19.70;17.30;;;11.90;99.90;;;;;;4995048;28;20528;-83
2021/10/09 08:46:23;;;;;;;20.03;17.93;;;12.00;99.90;;;;;;4997714;28;20458;-83
2021/10/09 08:48:52;;;;;;;18.70;16.67;;;12.00;99.90;;;;;;4981303;28;20457;-83
2021/10/09 08:51:23;;;;;;;20.33;15.63;;;12.10;99.90;;;;;;4982068;28;20599;-83
2021/10/09 08:53:51;;;;;;;17.93;15.00;;;12.20;99.90;;;;;;4999791;28;20474;-81
2021/10/09 08:56:33;;;;;;;18.17;14.57;;;12.30;99.90;;;;;;4991860;28;20449;-81
2021/10/09 08:59:09;;;;;;;18.60;16.13;;;12.40;99.90;;;;;;4988494;28;20458;-81
2021/10/09 09:01:42;;;;;;;24.80;19.10;;;12.50;99.90;;;;;;4984696;28;21083;-81
2021/10/09 09:07:28;;;;;;;18.07;15.40;;;12.60;99.90;;;;;;4928181;29;20497;-81
2021/10/09 09:40:37;;;;;;;15.70;14.10;;;13.20;99.90;;;;;;4978873;28;20442;-79
2021/10/09 09:43:04;;;;;;;16.03;14.37;;;13.40;99.90;;;;;;4993745;28;20896;-80
2021/10/09 09:45:33;;;;;;;15.90;14.20;;;13.50;99.90;;;;;;4979734;28;20458;-81
2021/10/09 09:48:00;;;;;;;15.52;14.00;;;13.70;99.90;;;;;;4984660;28;20455;-81
2021/10/09 09:50:28;;;;;;;21.60;15.23;;;14.00;99.90;;;;;;4999748;28;20212;-81
2021/10/09 09:52:55;;;;;;;21.67;14.47;;;14.20;99.90;;;;;;4995456;28;20486;-80
2021/10/09 09:55:22;;;;;;;16.30;14.57;;;14.50;99.90;;;;;;4978937;28;20463;-82
2021/10/09 09:57:52;;;;;;;25.00;18.20;;;14.70;99.90;;;;;;4982141;28;20456;-81
2021/10/09 10:00:19;;;;;;;20.00;15.27;;;14.90;99.90;;;;;;4999422;28;20467;-81
2021/10/09 10:02:50;;;;;;;17.27;15.43;;;15.10;99.90;;;;;;4987739;28;20496;-81
2021/10/09 10:05:17;;;;;;;15.17;13.70;;;15.30;99.90;;;;;;4978896;28;20456;-81
2021/10/09 10:07:44;;;;;;;15.07;12.93;;;15.40;99.90;;;;;;4990579;28;20451;-83
2021/10/09 10:10:11;;;;;;;14.63;13.23;;;15.60;99.90;;;;;;4998493;28;20455;-81
2021/10/09 10:12:39;;;;;;;16.60;15.10;;;15.80;99.90;;;;;;4995866;23;20486;-77
2021/10/09 10:15:08;;;;;;;14.93;13.43;;;16.00;99.90;;;;;;4995522;28;20461;-78
2021/10/09 10:17:40;;;;;;;13.53;12.13;;;16.10;99.90;;;;;;4983846;28;20459;-79
2021/10/09 10:20:10;;;;;;;18.70;14.80;;;15.80;98.60;;;;;;4979431;28;20447;-79
2021/10/09 10:22:57;;;;;;;14.87;13.67;;;15.80;98.70;;;;;;4995472;28;20490;-78
2021/10/09 10:25:35;;;;;;;15.40;13.90;;;15.60;99.40;;;;;;5003127;28;20575;-77
2021/10/09 10:28:03;;;;;;;16.60;14.90;;;15.70;99.70;;;;;;4995224;28;20458;-78
2021/10/09 10:30:33;;;;;;;16.30;14.80;;;15.70;99.50;;;;;;4993968;28;20458;-78
2021/10/09 10:33:24;;;;;;;16.57;13.43;;;15.70;99.90;;;;;;4994949;28;20467;-78
2021/10/09 10:35:53;;;;;;;15.10;13.13;;;15.90;99.90;;;;;;4994720;28;20621;-78
2021/10/09 10:38:43;;;;;;;13.97;12.67;;;16.20;99.90;;;;;;5001164;28;20463;-77
2021/10/09 10:41:12;;;;;;;14.83;13.40;;;16.10;99.20;;;;;;5003211;28;20455;-77
2021/10/09 11:00:51;;;;;;;14.93;13.47;;;20.50;93.20;;;;;;5014279;28;20433;-78
2021/10/09 11:31:08;;;;;;;11.03;10.00;;;24.50;75.70;;;;;;4832953;29;20602;-79
2021/10/09 11:33:36;;;;;;;12.07;11.07;;;25.00;73.90;;;;;;4915946;29;20470;-78
2021/10/09 11:36:04;;;;;;;12.13;11.03;;;25.50;73.70;;;;;;4970012;28;20505;-85
2021/10/09 11:38:33;;;;;;;10.87;9.80;;;25.80;71.20;;;;;;5000348;28;20466;-84
2021/10/09 11:41:03;;;;;;;11.63;10.50;;;26.40;69.40;;;;;;4999492;28;20490;-84
2021/10/09 11:43:44;;;;;;;14.50;10.07;;;26.70;66.50;;;;;;4998921;28;20578;-85
2021/10/09 11:46:28;;;;;;;13.60;10.50;;;27.00;65.10;;;;;;5000102;28;20493;-86
2021/10/09 11:54:32;;;;;;;10.93;10.03;;;27.70;62.60;;;;;;4996981;28;20458;-86
2021/10/09 11:56:59;;;;;;;11.57;10.53;;;28.40;59.80;;;;;;4999125;28;20466;-86
2021/10/09 11:59:40;;;;;;;11.50;10.40;;;28.90;59.30;;;;;;5005316;28;20543;-86
2021/10/09 12:02:09;;;;;;;11.70;10.70;;;29.20;58.80;;;;;;5006206;28;20487;-85
2021/10/09 12:04:37;;;;;;;12.10;11.00;;;28.90;55.30;;;;;;5006630;28;20527;-86
2021/10/09 12:07:09;;;;;;;11.60;10.70;;;27.70;55.30;;;;;;5004262;28;20478;-86
2021/10/09 12:09:38;;;;;;;12.77;11.57;;;27.50;57.20;;;;;;5005056;28;20957;-86
2021/10/09 12:12:12;;;;;;;11.17;10.17;;;27.60;57.70;;;;;;5006738;28;20487;-85
2021/10/09 12:14:39;;;;;;;12.37;11.17;;;27.90;55.90;;;;;;5004373;28;20544;-85
2021/10/09 12:17:08;;;;;;;12.20;11.10;;;27.60;57.10;;;;;;5001465;28;20462;-85
2021/10/09 12:19:38;;;;;;;12.27;11.17;;;28.10;56.50;;;;;;5002719;28;20943;-86
2021/10/09 12:22:07;;;;;;;11.57;10.47;;;28.60;56.10;;;;;;5003794;28;20454;-86
2021/10/09 13:49:57;;;;;;;11.63;10.50;;;23.50;57.40;;;;;;4838701;29;20514;-87
2021/10/09 14:10:07;;;;;;;;;;;;;;;;;;;;;
2021/10/09 14:16:37;;;;;;;;;;;;;;;;;;;;;
2021/10/09 14:19:09;;;;;;;12.20;11.10;;;21.20;63.80;;;;;;4941312;29;20485;-86
2021/10/09 14:21:39;;;;;;;10.93;9.83;;;20.80;63.90;;;;;;4974555;28;20460;-87
2021/10/09 14:24:06;;;;;;;9.23;8.33;;;20.50;64.70;;;;;;4975366;28;20598;-85
2021/10/09 14:26:49;;;;;;;11.63;10.43;;;20.40;65.70;;;;;;4974636;29;20457;-86
2021/10/09 14:29:51;;;;;;;11.10;9.67;;;20.40;66.80;;;;;;4974336;28;20460;-86
2021/10/09 14:35:25;;;;;;;10.57;9.67;;;20.20;65.90;;;;;;4947250;29;20478;-86
2021/10/09 14:37:54;;;;;;;10.83;9.73;;;19.80;68.00;;;;;;4971265;29;20480;-85
2021/10/09 14:40:29;;;;;;;13.37;10.50;;;19.50;68.30;;;;;;4970853;28;20527;-86
2021/10/09 14:43:02;;;;;;;10.93;10.00;;;19.40;68.70;;;;;;4968118;28;20464;-85
2021/10/09 14:45:31;;;;;;;11.80;10.33;;;19.40;69.80;;;;;;4970614;28;20507;-85
2021/10/09 14:48:14;;;;;;;12.30;8.90;;;19.40;69.30;;;;;;4971415;29;20464;-87
2021/10/09 15:18:38;;;;;;;8.67;7.83;;;18.00;73.40;;;;;;4974425;29;20469;-86
2021/10/09 15:30:17;;;;;;;10.93;7.93;;;17.60;73.30;;;;;;4969820;29;20839;-86
2021/10/09 15:32:45;;;;;;;9.77;8.50;;;17.60;73.70;;;;;;4970240;28;20498;-86
2021/10/09 15:35:57;;;;;;;9.00;8.07;;;17.50;73.30;;;;;;4973159;28;20458;-87
2021/10/09 15:39:08;;;;;;;;;;;;;;;;;;;;;
2021/10/09 15:47:43;;;;;;;8.97;7.90;;;16.90;74.90;;;;;;4945712;28;20473;-86
2021/10/09 15:53:52;;;;;;;8.93;7.07;;;16.70;76.90;;;;;;4962741;23;20501;-85
2021/10/09 15:59:29;;;;;;;7.87;7.03;;;16.50;78.50;;;;;;4988186;28;20548;-86
2021/10/09 16:02:06;;;;;;;;;;;;;;;;;;;;;
2021/10/09 16:04:36;;;;;;;9.47;7.50;;;16.40;78.00;;;;;;4976542;28;20480;-87
2021/10/09 16:07:42;;;;;;;10.23;7.20;;;16.10;78.40;;;;;;4973867;28;20445;-85
2021/10/09 16:13:51;;;;;;;9.67;7.13;;;15.90;80.50;;;;;;4921974;28;20547;-87
2021/10/09 16:16:25;;;;;;;8.07;7.37;;;15.90;80.80;;;;;;4970347;28;20488;-86
2021/10/09 16:19:08;;;;;;;8.77;7.97;;;15.80;81.00;;;;;;4971303;28;20448;-86
2021/10/09 16:22:05;;;;;;;9.20;8.30;;;15.60;80.90;;;;;;4970315;28;20447;-86
2021/10/09 16:25:22;;;;;;;9.70;8.20;;;15.50;81.90;;;;;;4970414;28;20540;-86
2021/10/09 16:30:35;;;;;;;8.50;7.70;;;15.40;83.40;;;;;;4968193;28;20469;-87
2021/10/09 16:33:02;;;;;;;9.40;8.40;;;15.40;83.20;;;;;;4972342;28;20544;-88
2021/10/09 16:36:08;;;;;;;8.63;7.73;;;15.30;84.10;;;;;;4975219;28;20453;-84
2021/10/09 16:38:37;;;;;;;7.97;7.33;;;15.10;84.00;;;;;;4970826;28;20463;-86
2021/10/09 16:41:04;;;;;;;9.37;8.47;;;15.00;84.80;;;;;;4974700;28;20432;-85
2021/10/09 16:46:41;;;;;;;9.90;7.77;;;14.70;85.60;;;;;;4961886;28;20495;-85
2021/10/09 16:49:09;;;;;;;10.70;8.50;;;14.70;86.20;;;;;;4975264;28;20505;-85
2021/10/09 16:52:04;;;;;;;;;;;;;;;;;;;;;
2021/10/09 16:54:31;;;;;;;8.30;7.50;;;14.40;87.80;;;;;;4971378;28;20520;-85
2021/10/09 16:57:05;;;;;;;10.83;9.10;;;14.20;88.50;;;;;;4973964;28;20467;-85
2021/10/09 16:59:32;;;;;;;8.53;7.63;;;14.20;89.20;;;;;;4970460;28;20440;-85
2021/10/09 17:05:32;;;;;;;9.63;8.70;;;13.90;90.30;;;;;;4913423;29;20471;-85
2021/10/09 17:12:03;;;;;;;9.73;8.73;;;13.70;91.30;;;;;;4873855;29;20463;-84
2021/10/09 17:15:30;;;;;;;12.50;10.80;;;13.50;91.60;;;;;;4914169;29;20549;-84
2021/10/09 17:19:02;;;;;;;;;;;;;;;;;;;;;
2021/10/09 17:22:17;;;;;;;10.83;8.30;;;13.20;92.90;;;;;;4929101;28;20460;-84
2021/10/09 17:27:50;;;;;;;10.63;8.80;;;12.70;94.30;;;;;;4971837;28;20543;-85
2021/10/09 17:30:57;;;;;;;10.23;9.23;;;12.60;94.60;;;;;;4974502;28;20441;-85
2021/10/09 17:33:24;;;;;;;10.30;8.43;;;12.50;94.70;;;;;;4970873;28;21008;-84
2021/10/09 17:39:27;;;;;;;13.87;10.07;;;12.40;95.60;;;;;;4970632;28;20457;-84
2021/10/09 17:42:34;;;;;;;;;;;;;;;;;;;;;
2021/10/09 17:45:15;;;;;;;9.23;7.90;;;12.30;96.00;;;;;;4970237;28;20472;-85
2021/10/09 17:47:56;;;;;;;8.97;8.13;;;12.30;96.00;;;;;;4971925;28;20555;-85
2021/10/09 17:50:27;;;;;;;8.80;8.00;;;12.20;96.20;;;;;;4969229;29;20440;-83
2021/10/09 17:52:55;;;;;;;10.77;8.83;;;12.20;96.50;;;;;;4971444;28;20475;-85
2021/10/09 17:55:35;;;;;;;12.30;8.80;;;12.20;96.70;;;;;;4968476;28;20494;-85
2021/10/09 17:58:03;;;;;;;9.27;8.53;;;12.10;97.10;;;;;;4970462;28;20522;-87
2021/10/09 18:01:20;;;;;;;11.30;9.40;;;12.00;97.60;;;;;;4971077;28;20448;-85
2021/10/09 19:03:23;;;;;;;11.47;9.90;;;11.40;99.90;;;;;;4983738;28;20505;-82
2021/10/09 19:05:56;;;;;;;9.40;8.60;;;11.30;99.90;;;;;;4988110;28;20478;-82
2021/10/09 19:28:48;;;;;;;11.98;10.85;;;11.00;99.90;;;;;;4912066;29;20204;-84
2021/10/09 19:45:06;;;;;;;10.73;9.03;;;10.70;99.90;;;;;;4739378;30;20725;-84
2021/10/09 19:58:18;;;;;;;13.33;11.50;;;10.40;99.90;;;;;;4884897;29;20211;-81
2021/10/09 20:07:34;;;;;;;11.00;9.90;;;10.30;99.90;;;;;;3164780;26;20220;-83
2021/10/09 20:18:20;;;;;;;11.93;10.73;;;10.00;99.90;;;;;;4834533;29;20465;-82
2021/10/09 20:27:25;;;;;;;11.63;10.43;;;9.80;99.90;;;;;;4994881;28;20213;-84
2021/10/09 21:00:26;;;;;;;;;;;;;;;;;;;;;
2021/10/09 21:24:01;;;;;;;13.50;11.38;;;9.30;99.90;;;;;;5011882;28;20237;-80
2021/10/09 21:26:28;;;;;;;11.88;10.45;;;9.20;99.90;;;;;;5013306;28;20233;-82
2021/10/09 21:28:56;;;;;;;15.38;11.80;;;9.10;99.90;;;;;;4996508;28;20202;-81
2021/10/09 21:31:23;;;;;;;12.23;10.35;;;9.10;99.90;;;;;;4994421;28;20300;-81
2021/10/09 21:33:50;;;;;;;11.70;10.48;;;9.20;99.90;;;;;;4993406;28;20235;-81
2021/10/09 21:36:17;;;;;;;13.45;12.02;;;9.00;99.90;;;;;;5007335;28;20215;-80